createdAt,value
2022-10-31T00:00:49.755Z,18.70
2022-10-31T00:03:18.372Z,17.90
2022-10-31T00:05:47.782Z,19.55
2022-10-31T00:08:15.740Z,19.00
2022-10-31T00:10:43.975Z,19.23
2022-10-31T00:13:12.763Z,18.80
2022-10-31T00:15:41.480Z,19.42
2022-10-31T00:18:10.329Z,18.92
2022-10-31T00:20:37.979Z,16.80
2022-10-31T00:23:06.515Z,17.83
2022-10-31T00:25:39.299Z,17.60
2022-10-31T00:28:08.339Z,16.80
2022-10-31T00:30:35.647Z,17.48
2022-10-31T00:33:05.432Z,17.98
2022-10-31T00:35:32.867Z,14.65
2022-10-31T00:38:00.335Z,15.40
2022-10-31T00:40:27.356Z,16.35
2022-10-31T00:42:54.516Z,15.20
2022-10-31T00:45:21.606Z,15.38
2022-10-31T00:47:48.616Z,15.90
2022-10-31T00:50:15.890Z,14.10
2022-10-31T00:52:42.903Z,15.27
2022-10-31T00:55:09.962Z,15.38
2022-10-31T00:57:37.156Z,14.88
2022-10-31T01:00:04.910Z,14.60
2022-10-31T01:02:32.072Z,14.45
2022-10-31T01:04:59.397Z,14.45
2022-10-31T01:07:26.446Z,15.52
2022-10-31T01:09:53.442Z,14.60
2022-10-31T01:12:20.653Z,14.82
2022-10-31T01:14:47.854Z,15.63
2022-10-31T01:17:15.601Z,15.05
2022-10-31T01:19:42.619Z,14.38
2022-10-31T01:22:09.835Z,15.10
2022-10-31T01:24:37.056Z,14.85
2022-10-31T01:27:04.774Z,13.63
2022-10-31T01:29:31.893Z,14.57
2022-10-31T01:31:58.977Z,14.23
2022-10-31T01:34:26.163Z,14.30
2022-10-31T01:36:53.213Z,13.25
2022-10-31T01:39:20.590Z,13.90
2022-10-31T01:41:53.444Z,15.02
2022-10-31T01:44:20.411Z,14.57
2022-10-31T01:46:55.012Z,14.75
2022-10-31T01:49:26.859Z,14.35
2022-10-31T01:52:02.706Z,14.90
2022-10-31T01:54:34.685Z,15.18
2022-10-31T01:57:03.937Z,15.00
2022-10-31T01:59:34.722Z,14.77
2022-10-31T02:02:02.125Z,14.88
2022-10-31T02:04:30.280Z,13.90
2022-10-31T02:07:04.709Z,15.15
2022-10-31T02:09:34.728Z,15.02
2022-10-31T02:12:02.370Z,14.80
2022-10-31T02:14:31.654Z,14.10
2022-10-31T02:16:59.227Z,15.68
2022-10-31T02:19:46.463Z,15.18
2022-10-31T02:22:23.982Z,14.50
2022-10-31T02:25:20.794Z,15.15
2022-10-31T02:28:10.939Z,14.45
2022-10-31T02:30:50.348Z,15.43
2022-10-31T02:33:30.893Z,14.88
2022-10-31T02:36:07.038Z,15.02
2022-10-31T02:38:41.541Z,15.40
2022-10-31T02:41:23.940Z,14.45
2022-10-31T02:44:09.805Z,14.52
2022-10-31T02:46:51.204Z,15.93
2022-10-31T02:49:35.310Z,16.05
2022-10-31T02:52:02.460Z,16.13
2022-10-31T02:54:30.435Z,16.20
2022-10-31T02:57:08.433Z,15.60
2022-10-31T02:59:38.266Z,15.75
2022-10-31T03:02:34.845Z,17.27
2022-10-31T03:05:08.122Z,17.50
2022-10-31T03:08:08.944Z,16.85
2022-10-31T03:10:53.459Z,18.58
2022-10-31T03:13:35.417Z,18.33
2022-10-31T03:16:08.190Z,15.77
2022-10-31T03:18:41.519Z,15.52
2022-10-31T03:21:17.843Z,16.40
2022-10-31T03:23:47.486Z,17.20
2022-10-31T03:26:16.598Z,16.20
2022-10-31T03:28:58.478Z,16.92
2022-10-31T03:31:30.716Z,15.38
2022-10-31T03:34:01.287Z,17.17
2022-10-31T03:36:32.267Z,15.77
2022-10-31T03:39:01.894Z,16.48
2022-10-31T03:41:32.557Z,15.13
2022-10-31T03:44:09.026Z,16.70
2022-10-31T03:46:36.286Z,15.52
2022-10-31T03:49:04.207Z,16.55
2022-10-31T03:51:50.259Z,17.05
2022-10-31T03:54:42.877Z,17.13
2022-10-31T03:57:22.930Z,15.73
2022-10-31T03:59:56.435Z,16.00
2022-10-31T04:02:30.109Z,17.48
2022-10-31T04:04:57.888Z,15.50
2022-10-31T04:07:29.025Z,15.10
2022-10-31T04:09:57.703Z,14.25
2022-10-31T04:12:26.599Z,14.25
2022-10-31T04:14:56.075Z,14.95
2022-10-31T04:17:24.929Z,14.20
2022-10-31T04:19:52.256Z,12.75
2022-10-31T04:22:19.322Z,12.95
2022-10-31T04:24:46.386Z,13.98
2022-10-31T04:27:13.477Z,13.50
2022-10-31T04:29:40.468Z,13.27
2022-10-31T04:32:07.605Z,14.27
2022-10-31T04:34:34.688Z,13.45
2022-10-31T04:37:01.730Z,14.35
2022-10-31T04:39:28.936Z,15.73
2022-10-31T04:41:55.951Z,14.43
2022-10-31T04:44:22.971Z,12.80
2022-10-31T04:46:50.221Z,13.00
2022-10-31T04:49:17.229Z,13.30
2022-10-31T04:51:44.248Z,12.73
2022-10-31T04:54:11.350Z,12.85
2022-10-31T04:56:38.376Z,13.13
2022-10-31T04:59:05.557Z,12.88
2022-10-31T05:01:32.737Z,13.10
2022-10-31T05:03:59.850Z,12.67
2022-10-31T05:06:26.969Z,11.85
2022-10-31T05:08:54.233Z,12.95
2022-10-31T05:11:21.255Z,13.32
2022-10-31T05:13:48.492Z,12.13
2022-10-31T05:16:15.637Z,12.63
2022-10-31T05:18:42.641Z,12.90
2022-10-31T05:21:09.931Z,12.90
2022-10-31T05:23:38.121Z,11.95
2022-10-31T05:26:05.953Z,12.35
2022-10-31T05:28:32.987Z,12.98
2022-10-31T05:31:00.050Z,11.80
2022-10-31T05:33:27.169Z,12.07
2022-10-31T05:35:54.172Z,11.40
2022-10-31T05:38:21.361Z,12.10
2022-10-31T05:40:48.583Z,11.93
2022-10-31T05:43:15.601Z,11.23
2022-10-31T05:45:42.616Z,11.40
2022-10-31T05:48:09.905Z,10.65
2022-10-31T05:50:38.670Z,10.38
2022-10-31T05:53:06.664Z,10.70
2022-10-31T05:55:34.345Z,9.88
2022-10-31T05:58:01.949Z,10.65
2022-10-31T06:00:30.141Z,10.00
2022-10-31T06:03:05.081Z,10.45
2022-10-31T06:05:32.651Z,10.52
2022-10-31T06:08:00.637Z,9.75
2022-10-31T06:10:28.437Z,9.10
2022-10-31T06:12:55.602Z,9.80
2022-10-31T06:15:24.594Z,10.07
2022-10-31T06:18:03.559Z,8.40
2022-10-31T06:20:31.662Z,8.80
2022-10-31T06:22:59.265Z,10.32
2022-10-31T06:25:27.124Z,9.23
2022-10-31T06:27:54.304Z,8.80
2022-10-31T06:30:21.348Z,9.13
2022-10-31T06:32:48.484Z,9.40
2022-10-31T06:35:15.606Z,9.48
2022-10-31T06:37:44.454Z,9.27
2022-10-31T06:40:14.027Z,8.95
2022-10-31T06:42:41.039Z,8.38
2022-10-31T06:45:08.477Z,9.00
2022-10-31T06:47:45.676Z,8.68
2022-10-31T06:50:23.794Z,9.05
2022-10-31T06:52:54.774Z,8.65
2022-10-31T06:55:23.794Z,9.10
2022-10-31T06:57:57.665Z,8.65
2022-10-31T07:00:30.920Z,9.40
2022-10-31T07:03:00.596Z,9.00
2022-10-31T07:05:28.666Z,8.93
2022-10-31T07:07:57.695Z,10.20
2022-10-31T07:10:26.883Z,10.00
2022-10-31T07:13:02.703Z,10.43
2022-10-31T07:15:33.782Z,11.52
2022-10-31T07:18:05.370Z,11.43
2022-10-31T07:23:00.265Z,11.38
2022-10-31T07:25:27.996Z,11.63
2022-10-31T07:27:55.100Z,11.75
2022-10-31T07:30:22.268Z,12.40
2022-10-31T07:32:50.740Z,13.07
2022-10-31T07:35:20.379Z,13.02
2022-10-31T07:37:48.106Z,12.27
2022-10-31T07:40:15.516Z,12.77
2022-10-31T07:42:47.856Z,12.65
2022-10-31T07:45:18.239Z,12.90
2022-10-31T07:47:49.905Z,13.02
2022-10-31T07:50:20.007Z,11.80
2022-10-31T07:52:47.029Z,12.43
2022-10-31T07:55:15.414Z,12.77
2022-10-31T07:57:42.638Z,10.55
2022-10-31T08:00:11.244Z,11.90
2022-10-31T08:02:39.760Z,10.90
2022-10-31T08:05:07.414Z,11.00
2022-10-31T08:07:38.966Z,10.93
2022-10-31T08:10:07.203Z,10.05
2022-10-31T08:12:34.326Z,9.98
2022-10-31T08:15:01.682Z,10.43
2022-10-31T08:17:28.793Z,9.52
2022-10-31T08:19:55.795Z,9.40
2022-10-31T08:22:23.022Z,10.25
2022-10-31T08:24:50.047Z,11.02
2022-10-31T08:27:17.077Z,10.85
2022-10-31T08:29:44.212Z,9.55
2022-10-31T08:32:11.285Z,9.82
2022-10-31T08:34:38.566Z,10.45
2022-10-31T08:37:05.624Z,9.48
2022-10-31T08:39:32.715Z,9.57
2022-10-31T08:41:59.933Z,9.20
2022-10-31T08:44:27.008Z,8.50
2022-10-31T08:46:54.932Z,8.93
2022-10-31T08:49:22.037Z,8.65
2022-10-31T08:51:49.744Z,8.55
2022-10-31T08:54:16.873Z,8.73
2022-10-31T08:56:43.929Z,8.60
2022-10-31T08:59:11.122Z,7.97
2022-10-31T09:01:39.812Z,8.90
2022-10-31T09:04:07.082Z,8.30
2022-10-31T09:06:34.625Z,8.60
2022-10-31T09:09:01.737Z,8.55
2022-10-31T09:11:31.044Z,8.65
2022-10-31T09:13:58.397Z,9.52
2022-10-31T09:16:25.941Z,10.05
2022-10-31T09:18:53.259Z,8.73
2022-10-31T09:21:20.499Z,9.10
2022-10-31T09:23:48.187Z,9.88
2022-10-31T09:26:15.433Z,8.90
2022-10-31T09:28:42.650Z,8.07
2022-10-31T09:31:10.151Z,7.05
2022-10-31T09:33:38.391Z,6.70
2022-10-31T09:36:05.684Z,7.18
2022-10-31T09:38:32.934Z,7.30
2022-10-31T09:41:25.192Z,7.55
2022-10-31T09:44:00.637Z,7.07
2022-10-31T09:46:47.715Z,6.15
2022-10-31T09:49:15.103Z,6.47
2022-10-31T09:51:51.995Z,6.72
2022-10-31T09:54:44.651Z,6.05
2022-10-31T09:59:46.790Z,6.10
2022-10-31T10:02:13.868Z,6.57
2022-10-31T10:04:55.079Z,5.70
2022-10-31T10:07:37.683Z,5.85
2022-10-31T10:10:40.854Z,4.70
2022-10-31T10:13:17.824Z,4.90
2022-10-31T10:15:54.009Z,4.63
2022-10-31T10:18:41.947Z,4.95
2022-10-31T10:21:52.263Z,5.15
2022-10-31T10:24:42.502Z,4.28
2022-10-31T10:27:37.438Z,5.60
2022-10-31T10:30:14.328Z,5.13
2022-10-31T10:32:51.063Z,4.80
2022-10-31T10:35:29.121Z,5.35
2022-10-31T10:38:19.665Z,4.82
2022-10-31T10:40:47.638Z,5.00
2022-10-31T10:43:37.821Z,4.93
2022-10-31T10:47:01.282Z,4.80
2022-10-31T10:49:44.348Z,4.60
2022-10-31T10:52:43.141Z,4.72
2022-10-31T10:58:02.953Z,5.50
2022-10-31T11:00:50.272Z,4.82
2022-10-31T11:03:18.944Z,4.90
2022-10-31T11:05:59.660Z,5.05
2022-10-31T11:08:35.177Z,4.70
2022-10-31T11:11:20.965Z,4.13
2022-10-31T11:13:51.544Z,4.28
2022-10-31T11:16:41.663Z,4.43
2022-10-31T11:19:22.799Z,3.92
2022-10-31T11:21:53.655Z,4.30
2022-10-31T11:24:28.637Z,4.15
2022-10-31T11:27:21.131Z,5.07
2022-10-31T11:29:49.822Z,4.68
2022-10-31T11:32:27.742Z,4.50
2022-10-31T11:34:57.822Z,5.10
2022-10-31T11:37:36.433Z,5.10
2022-10-31T11:40:07.283Z,5.03
2022-10-31T11:42:43.454Z,5.18
2022-10-31T11:45:28.619Z,4.70
2022-10-31T11:47:59.990Z,3.50
2022-10-31T11:50:40.448Z,3.60
2022-10-31T11:53:20.732Z,3.42
2022-10-31T11:55:48.849Z,3.42
2022-10-31T11:58:27.529Z,3.15
2022-10-31T12:00:56.958Z,2.80
2022-10-31T12:03:23.953Z,2.35
2022-10-31T12:06:04.015Z,2.20
2022-10-31T12:08:37.203Z,2.33
2022-10-31T12:11:12.820Z,1.77
2022-10-31T12:14:05.050Z,1.98
2022-10-31T12:16:50.465Z,1.73
2022-10-31T12:19:34.061Z,2.22
2022-10-31T12:22:21.479Z,2.00
2022-10-31T12:25:18.850Z,1.38
2022-10-31T12:28:04.538Z,1.70
2022-10-31T12:31:10.117Z,1.50
2022-10-31T12:33:46.506Z,2.00
2022-10-31T12:36:29.453Z,2.22
2022-10-31T12:39:19.883Z,1.80
2022-10-31T12:42:29.816Z,1.95
2022-10-31T12:45:28.995Z,1.58
2022-10-31T12:48:10.494Z,1.55
2022-10-31T12:51:00.705Z,2.22
2022-10-31T12:53:54.072Z,2.20
2022-10-31T12:56:45.310Z,2.00
2022-10-31T12:59:25.489Z,1.33
2022-10-31T13:02:32.458Z,2.20
2022-10-31T13:05:01.810Z,1.23
2022-10-31T13:07:52.035Z,1.60
2022-10-31T13:10:41.170Z,1.92
2022-10-31T13:13:14.727Z,1.58
2022-10-31T13:16:04.125Z,1.70
2022-10-31T13:18:44.514Z,1.90
2022-10-31T13:21:26.321Z,1.63
2022-10-31T13:23:53.733Z,1.92
2022-10-31T13:26:47.163Z,1.52
2022-10-31T13:29:19.121Z,1.48
2022-10-31T13:31:46.454Z,2.10
2022-10-31T13:34:24.080Z,2.20
2022-10-31T13:37:04.496Z,1.92
2022-10-31T13:39:42.696Z,1.70
2022-10-31T13:42:16.743Z,1.67
2022-10-31T13:44:43.897Z,2.38
2022-10-31T13:47:30.494Z,1.50
2022-10-31T13:50:19.890Z,1.52
2022-10-31T13:52:47.591Z,2.10
2022-10-31T13:55:44.651Z,1.80
2022-10-31T13:58:32.698Z,1.65
2022-10-31T14:01:01.415Z,1.35
2022-10-31T14:03:49.738Z,1.60
2022-10-31T14:06:17.595Z,2.53
2022-10-31T14:08:52.466Z,2.15
2022-10-31T14:11:33.018Z,2.20
2022-10-31T14:14:03.555Z,2.15
2022-10-31T14:16:32.887Z,1.75
2022-10-31T14:19:00.031Z,1.77
2022-10-31T14:21:27.061Z,1.90
2022-10-31T14:23:55.268Z,2.13
2022-10-31T14:26:29.535Z,2.30
2022-10-31T14:29:20.090Z,2.45
2022-10-31T14:31:55.233Z,2.10
2022-10-31T14:34:29.088Z,2.15
2022-10-31T14:36:59.105Z,2.30
2022-10-31T14:39:49.291Z,2.00
2022-10-31T14:42:26.043Z,2.55
2022-10-31T14:45:18.732Z,2.22
2022-10-31T14:47:54.960Z,2.38
2022-10-31T14:50:27.731Z,2.22
2022-10-31T14:52:58.909Z,2.38
2022-10-31T14:58:02.271Z,2.70
2022-10-31T15:00:32.313Z,2.53
2022-10-31T15:03:24.359Z,2.38
2022-10-31T15:05:57.038Z,1.77
2022-10-31T15:08:36.220Z,2.00
2022-10-31T15:11:19.748Z,2.50
2022-10-31T15:13:54.185Z,2.28
2022-10-31T15:16:27.935Z,2.63
2022-10-31T15:19:05.387Z,2.25
2022-10-31T15:21:34.278Z,2.42
2022-10-31T15:24:03.761Z,3.05
2022-10-31T15:26:41.754Z,2.83
2022-10-31T15:29:17.371Z,2.60
2022-10-31T15:31:55.386Z,2.47
2022-10-31T15:34:38.997Z,2.42
2022-10-31T15:37:10.813Z,2.92
2022-10-31T15:39:40.862Z,3.28
2022-10-31T15:42:29.988Z,2.63
2022-10-31T15:45:01.787Z,3.13
2022-10-31T15:47:31.376Z,2.63
2022-10-31T15:50:00.439Z,2.80
2022-10-31T15:52:30.588Z,3.30
2022-10-31T15:55:04.800Z,4.18
2022-10-31T15:57:32.470Z,4.20
2022-10-31T16:00:00.201Z,4.85
2022-10-31T16:02:29.036Z,5.22
2022-10-31T16:05:03.461Z,5.65
2022-10-31T16:07:31.531Z,5.55
2022-10-31T16:10:04.768Z,5.93
2022-10-31T16:12:47.004Z,6.13
2022-10-31T16:15:18.856Z,6.72
2022-10-31T16:17:49.028Z,6.22
2022-10-31T16:20:24.281Z,6.30
2022-10-31T16:22:53.216Z,6.03
2022-10-31T16:25:39.502Z,7.65
2022-10-31T16:28:42.361Z,6.72
2022-10-31T16:31:15.827Z,6.95
2022-10-31T16:33:43.498Z,7.32
2022-10-31T16:36:46.283Z,6.95
2022-10-31T16:39:15.200Z,6.10
2022-10-31T16:41:43.887Z,5.28
2022-10-31T16:44:19.522Z,5.72
2022-10-31T16:46:46.845Z,5.65
2022-10-31T16:49:14.212Z,6.80
2022-10-31T16:51:41.400Z,6.07
2022-10-31T16:54:10.984Z,6.03
2022-10-31T16:56:38.985Z,5.90
2022-10-31T16:59:15.668Z,5.50
2022-10-31T17:01:48.318Z,5.30
2022-10-31T17:04:16.091Z,5.70
2022-10-31T17:06:43.429Z,5.50
2022-10-31T17:09:10.964Z,5.40
2022-10-31T17:11:48.213Z,5.63
2022-10-31T17:14:17.523Z,5.18
2022-10-31T17:16:44.764Z,6.57
2022-10-31T17:19:12.971Z,5.57
2022-10-31T17:21:40.749Z,6.13
2022-10-31T17:24:11.636Z,6.80
2022-10-31T17:26:38.685Z,5.72
2022-10-31T17:29:05.758Z,5.28
2022-10-31T17:31:36.551Z,6.30
2022-10-31T17:34:05.420Z,5.53
2022-10-31T17:36:36.165Z,5.25
2022-10-31T17:39:05.666Z,6.07
2022-10-31T17:41:32.682Z,6.30
2022-10-31T17:44:01.087Z,5.97
2022-10-31T17:46:29.018Z,6.97
2022-10-31T17:48:56.284Z,6.35
2022-10-31T17:51:23.399Z,5.93
2022-10-31T17:53:50.522Z,5.53
2022-10-31T17:56:17.634Z,6.35
2022-10-31T17:58:44.828Z,5.38
2022-10-31T18:01:14.720Z,5.43
2022-10-31T18:03:42.017Z,5.65
2022-10-31T18:06:10.849Z,6.25
2022-10-31T18:08:39.647Z,5.75
2022-10-31T18:11:17.574Z,5.75
2022-10-31T18:13:44.669Z,5.32
2022-10-31T18:16:16.739Z,5.40
2022-10-31T18:18:44.002Z,6.15
2022-10-31T18:21:11.184Z,6.10
2022-10-31T18:23:38.325Z,5.78
2022-10-31T18:26:05.675Z,5.32
2022-10-31T18:28:33.806Z,6.15
2022-10-31T18:31:01.147Z,5.97
2022-10-31T18:33:28.697Z,5.25
2022-10-31T18:35:56.310Z,5.93
2022-10-31T18:38:23.837Z,5.65
2022-10-31T18:40:52.099Z,6.10
2022-10-31T18:43:19.165Z,7.95
2022-10-31T18:45:48.594Z,6.32
2022-10-31T18:48:17.895Z,6.57
2022-10-31T18:50:45.267Z,6.25
2022-10-31T18:53:12.542Z,6.32
2022-10-31T18:55:45.738Z,6.47
2022-10-31T18:58:17.680Z,5.88
2022-10-31T19:00:46.181Z,5.25
2022-10-31T19:03:13.928Z,6.60
2022-10-31T19:05:41.037Z,5.70
2022-10-31T19:08:08.176Z,6.25
2022-10-31T19:10:36.989Z,6.65
2022-10-31T19:13:04.752Z,6.97
2022-10-31T19:15:33.899Z,6.93
2022-10-31T19:18:01.236Z,6.28
2022-10-31T19:20:28.313Z,6.00
2022-10-31T19:22:55.553Z,6.88
2022-10-31T19:25:22.622Z,7.30
2022-10-31T19:27:49.704Z,6.95
2022-10-31T19:30:17.129Z,6.68
2022-10-31T19:32:44.222Z,7.63
2022-10-31T19:35:11.862Z,7.10
2022-10-31T19:37:40.264Z,7.20
2022-10-31T19:40:09.373Z,8.02
2022-10-31T19:42:36.629Z,7.45
2022-10-31T19:45:04.842Z,7.35
2022-10-31T19:47:32.203Z,7.20
2022-10-31T19:49:59.271Z,7.35
2022-10-31T19:52:26.443Z,6.90
2022-10-31T19:54:53.818Z,7.53
2022-10-31T19:57:35.789Z,7.05
2022-10-31T20:00:08.862Z,7.30
2022-10-31T20:02:35.949Z,6.57
2022-10-31T20:05:03.056Z,8.27
2022-10-31T20:07:30.288Z,6.28
2022-10-31T20:09:57.517Z,7.10
2022-10-31T20:12:24.800Z,6.63
2022-10-31T20:14:51.978Z,6.80
2022-10-31T20:17:19.013Z,6.70
2022-10-31T20:19:46.301Z,7.10
2022-10-31T20:22:13.646Z,7.55
2022-10-31T20:24:40.911Z,7.13
2022-10-31T20:27:08.078Z,6.80
2022-10-31T20:29:35.452Z,7.38
2022-10-31T20:32:02.740Z,7.93
2022-10-31T20:34:29.885Z,7.28
2022-10-31T20:36:56.998Z,7.68
2022-10-31T20:39:24.045Z,8.27
2022-10-31T20:41:51.620Z,8.00
2022-10-31T20:44:19.223Z,7.65
2022-10-31T20:46:46.383Z,7.65
2022-10-31T20:49:13.510Z,7.18
2022-10-31T20:51:40.881Z,7.05
2022-10-31T20:54:08.156Z,6.65
2022-10-31T20:56:35.315Z,9.25
2022-10-31T20:59:02.547Z,25.00
2022-10-31T21:01:33.355Z,22.52
2022-10-31T21:04:00.602Z,20.90
2022-10-31T21:06:28.927Z,18.95
2022-10-31T21:08:57.328Z,14.65
2022-10-31T21:11:26.497Z,16.60
2022-10-31T21:13:54.368Z,11.68
2022-10-31T21:16:32.530Z,9.80
2022-10-31T21:19:01.325Z,8.90
2022-10-31T21:21:37.627Z,8.82
2022-10-31T21:24:06.873Z,6.68
2022-10-31T21:26:38.053Z,7.65
2022-10-31T21:29:06.368Z,14.00
2022-10-31T21:31:35.317Z,12.60
2022-10-31T21:34:02.709Z,10.98
2022-10-31T21:36:30.052Z,7.18
2022-10-31T21:38:57.475Z,7.13
2022-10-31T21:41:26.063Z,7.00
2022-10-31T21:43:56.805Z,5.90
2022-10-31T21:46:26.526Z,6.05
2022-10-31T21:48:54.470Z,5.65
2022-10-31T21:51:30.331Z,5.35
2022-10-31T21:54:24.086Z,5.47
2022-10-31T21:56:55.552Z,5.60
2022-10-31T22:01:57.156Z,5.78
2022-10-31T22:04:34.097Z,5.60
2022-10-31T22:07:01.272Z,5.65
2022-10-31T22:09:31.869Z,5.35
2022-10-31T22:12:06.870Z,6.40
2022-10-31T22:14:37.991Z,5.65
2022-10-31T22:17:15.675Z,4.82
2022-10-31T22:19:42.934Z,5.28
2022-10-31T22:22:19.422Z,4.65
2022-10-31T22:24:49.860Z,4.75
2022-10-31T22:27:17.017Z,4.43
2022-10-31T22:29:44.331Z,4.07
2022-10-31T22:32:11.442Z,4.78
2022-10-31T22:34:42.338Z,4.47
2022-10-31T22:37:17.253Z,4.60
2022-10-31T22:39:51.257Z,4.22
2022-10-31T22:42:18.463Z,5.10
2022-10-31T22:44:48.565Z,5.40
2022-10-31T22:47:15.777Z,6.50
2022-10-31T22:49:48.438Z,5.93
2022-10-31T22:52:16.772Z,6.38
2022-10-31T22:54:47.559Z,6.63
2022-10-31T22:57:14.656Z,7.60
2022-10-31T22:59:42.948Z,7.70
2022-10-31T23:02:15.811Z,6.72
2022-10-31T23:04:43.249Z,6.72
2022-10-31T23:07:14.816Z,7.05
2022-10-31T23:09:44.029Z,6.43
2022-10-31T23:12:29.719Z,6.53
2022-10-31T23:14:56.907Z,6.78
2022-10-31T23:17:27.031Z,7.07
2022-10-31T23:19:54.116Z,6.65
2022-10-31T23:22:25.735Z,7.25
2022-10-31T23:24:57.725Z,7.07
2022-10-31T23:27:29.894Z,8.48
2022-10-31T23:30:02.385Z,7.57
2022-10-31T23:32:37.288Z,8.75
2022-10-31T23:35:09.033Z,7.90
2022-10-31T23:37:39.773Z,8.57
2022-10-31T23:40:08.892Z,7.25
2022-10-31T23:42:39.606Z,7.28
2022-10-31T23:45:07.397Z,8.05
2022-10-31T23:47:43.207Z,7.35
2022-10-31T23:50:14.588Z,7.00
2022-10-31T23:52:44.479Z,6.55
2022-10-31T23:55:15.241Z,6.35
2022-10-31T23:57:42.803Z,7.38
